Time;durP1;ratioP1;P1;durP2;ratioP2;P2;SDS_P1;SDS_P2;PMS_P1;PMS_P2;Temp;Humidity;BMP_temperature;BMP_pressure;BME280_temperature;BME280_humidity;BME280_pressure;Samples;Min_cycle;Max_cycle;Signal;HPM_P1;HPM_P2
2022/04/09 00:02:04;;;;;;;0.10;0.10;;;;;;;;;;5087539;28;20421;-83
2022/04/09 00:04:30;;;;;;;0.10;0.10;;;;;;;;;;5083834;28;20380;-82
2022/04/09 00:06:57;;;;;;;0.17;0.17;;;;;;;;;;5086998;28;20241;-83
2022/04/09 00:09:23;;;;;;;0.20;0.20;;;;;;;;;;5083917;28;20381;-82
2022/04/09 00:11:50;;;;;;;0.20;0.20;;;;;;;;;;5086056;28;20256;-82
2022/04/09 00:14:17;;;;;;;0.20;0.20;;;;;;;;;;5084889;28;20206;-81
2022/04/09 00:16:44;;;;;;;0.10;0.10;;;;;;;;;;5089159;28;20234;-82
2022/04/09 00:19:10;;;;;;;0.10;0.10;;;;;;;;;;5089180;28;20205;-82
2022/04/09 00:21:37;;;;;;;0.30;0.30;;;;;;;;;;5088404;28;20248;-82
2022/04/09 00:24:05;;;;;;;0.10;0.10;;;;;;;;;;5090201;28;20267;-82
2022/04/09 00:26:31;;;;;;;0.20;0.20;;;;;;;;;;5087415;28;20248;-80
2022/04/09 00:28:57;;;;;;;0.20;0.20;;;;;;;;;;5090896;28;20432;-81
2022/04/09 00:31:25;;;;;;;0.20;0.20;;;;;;;;;;5086288;28;20299;-81
2022/04/09 00:33:51;;;;;;;0.20;0.20;;;;;;;;;;5091724;28;20209;-81
2022/04/09 00:36:18;;;;;;;0.20;0.20;;;;;;;;;;5085157;28;20300;-81
2022/04/09 00:38:44;;;;;;;1.20;1.20;;;;;;;;;;5092119;28;20515;-81
2022/04/09 00:41:10;;;;;;;0.20;0.20;;;;;;;;;;5084319;28;20268;-81
2022/04/09 00:43:41;;;;;;;0.20;0.20;;;;;;;;;;5093212;28;20205;-81
2022/04/09 00:46:07;;;;;;;0.17;0.17;;;;;;;;;;5083867;28;20235;-82
2022/04/09 00:48:37;;;;;;;0.13;0.13;;;;;;;;;;5093269;28;20513;-81
2022/04/09 00:51:03;;;;;;;0.20;0.20;;;;;;;;;;5083271;28;20244;-80
2022/04/09 00:53:32;;;;;;;0.10;0.10;;;;;;;;;;5093934;28;20210;-82
2022/04/09 00:56:15;;;;;;;0.20;0.20;;;;;;;;;;5082242;28;20487;-82
2022/04/09 00:58:44;;;;;;;0.20;0.20;;;;;;;;;;5092336;28;20212;-81
2022/04/09 01:01:11;;;;;;;0.33;0.33;;;;;;;;;;5084069;28;20545;-82
2022/04/09 01:03:39;;;;;;;0.10;0.10;;;;;;;;;;5092976;28;20203;-81
2022/04/09 01:06:06;;;;;;;0.20;0.20;;;;;;;;;;5083588;28;20317;-82
2022/04/09 01:08:33;;;;;;;0.10;0.10;;;;;;;;;;5093757;28;20266;-82
2022/04/09 01:11:00;;;;;;;0.20;0.20;;;;;;;;;;5082322;28;20245;-81
2022/04/09 01:13:27;;;;;;;0.20;0.20;;;;;;;;;;5094317;28;20419;-82
2022/04/09 01:15:54;;;;;;;0.10;0.10;;;;;;;;;;5081716;28;20245;-83
2022/04/09 01:18:21;;;;;;;0.20;0.20;;;;;;;;;;5094710;28;20205;-82
2022/04/09 01:20:48;;;;;;;0.20;0.20;;;;;;;;;;5080801;28;20305;-82
2022/04/09 01:23:16;;;;;;;0.17;0.17;;;;;;;;;;5095357;28;20343;-82
2022/04/09 01:25:44;;;;;;;0.20;0.20;;;;;;;;;;5080243;28;20241;-84
2022/04/09 01:28:11;;;;;;;0.20;0.20;;;;;;;;;;5095450;28;20292;-82
2022/04/09 01:30:37;;;;;;;0.40;0.40;;;;;;;;;;5078627;28;20252;-81
2022/04/09 01:33:03;;;;;;;0.10;0.10;;;;;;;;;;5096383;28;20202;-81
2022/04/09 01:35:30;;;;;;;0.20;0.20;;;;;;;;;;5078064;28;20289;-80
2022/04/09 01:37:56;;;;;;;0.20;0.20;;;;;;;;;;5096991;28;20424;-81
2022/04/09 01:40:24;;;;;;;0.20;0.20;;;;;;;;;;5077292;28;20447;-82
2022/04/09 01:42:50;;;;;;;0.10;0.10;;;;;;;;;;5098381;28;20191;-81
2022/04/09 01:45:17;;;;;;;0.20;0.20;;;;;;;;;;5075955;28;20246;-81
2022/04/09 01:47:43;;;;;;;0.20;0.20;;;;;;;;;;5099204;28;20377;-81
2022/04/09 01:50:10;;;;;;;0.20;0.20;;;;;;;;;;5074771;28;20211;-82
2022/04/09 01:52:36;;;;;;;0.20;0.20;;;;;;;;;;5099401;28;20501;-81
2022/04/09 01:55:03;;;;;;;0.20;0.20;;;;;;;;;;5084698;28;20209;-82
2022/04/09 01:57:31;;;;;;;0.20;0.20;;;;;;;;;;5089999;28;20246;-81
2022/04/09 01:59:57;;;;;;;1.70;0.77;;;;;;;;;;5084615;28;20214;-82
2022/04/09 02:02:23;;;;;;;0.20;0.20;;;;;;;;;;5089678;28;20265;-82
2022/04/09 02:04:50;;;;;;;0.10;0.10;;;;;;;;;;5083259;28;20266;-81
2022/04/09 02:07:17;;;;;;;0.20;0.20;;;;;;;;;;5089971;28;20304;-82
2022/04/09 02:09:43;;;;;;;0.20;0.20;;;;;;;;;;5084907;28;20211;-81
2022/04/09 02:12:10;;;;;;;0.10;0.10;;;;;;;;;;5089778;28;20286;-80
2022/04/09 02:14:37;;;;;;;0.20;0.20;;;;;;;;;;5084157;28;20198;-81
2022/04/09 02:17:04;;;;;;;0.20;0.20;;;;;;;;;;5089383;28;20236;-82
2022/04/09 02:19:30;;;;;;;0.20;0.20;;;;;;;;;;5084536;28;20200;-80
2022/04/09 02:21:57;;;;;;;0.20;0.20;;;;;;;;;;5088512;28;20291;-79
2022/04/09 02:24:23;;;;;;;0.20;0.20;;;;;;;;;;5085350;28;20364;-80
2022/04/09 02:26:49;;;;;;;0.20;0.20;;;;;;;;;;5087421;28;20267;-83
2022/04/09 02:29:16;;;;;;;0.10;0.10;;;;;;;;;;5086095;28;20386;-81
2022/04/09 02:31:43;;;;;;;0.10;0.10;;;;;;;;;;5086166;28;20244;-81
2022/04/09 02:34:10;;;;;;;0.20;0.20;;;;;;;;;;5086597;28;20201;-81
2022/04/09 02:36:36;;;;;;;0.20;0.20;;;;;;;;;;5085065;28;20240;-81
2022/04/09 02:39:02;;;;;;;0.20;0.20;;;;;;;;;;5087037;28;20213;-82
2022/04/09 02:41:29;;;;;;;0.20;0.20;;;;;;;;;;5084434;28;20244;-82
2022/04/09 02:43:56;;;;;;;0.10;0.10;;;;;;;;;;5088340;28;20232;-81
2022/04/09 02:46:22;;;;;;;0.20;0.20;;;;;;;;;;5083291;28;20239;-82
2022/04/09 02:48:50;;;;;;;0.20;0.20;;;;;;;;;;5089227;28;20267;-83
2022/04/09 02:51:17;;;;;;;0.10;0.10;;;;;;;;;;5082481;28;20265;-83
2022/04/09 02:53:43;;;;;;;0.20;0.20;;;;;;;;;;5089731;28;20205;-81
2022/04/09 02:56:09;;;;;;;0.20;0.20;;;;;;;;;;5081402;28;20251;-81
2022/04/09 02:58:36;;;;;;;0.20;0.20;;;;;;;;;;5090518;28;20206;-82
2022/04/09 03:01:02;;;;;;;0.20;0.20;;;;;;;;;;5080493;28;20286;-81
2022/04/09 03:03:29;;;;;;;0.20;0.20;;;;;;;;;;5091710;28;20212;-81
2022/04/09 03:05:56;;;;;;;0.20;0.20;;;;;;;;;;5079739;28;20479;-82
2022/04/09 03:08:22;;;;;;;0.20;0.20;;;;;;;;;;5092330;28;20246;-81
2022/04/09 03:10:49;;;;;;;0.20;0.20;;;;;;;;;;5079081;28;20271;-82
2022/04/09 03:13:17;;;;;;;0.20;0.20;;;;;;;;;;5093073;28;20196;-82
2022/04/09 03:15:44;;;;;;;0.20;0.20;;;;;;;;;;5078336;28;20236;-81
2022/04/09 03:18:10;;;;;;;0.20;0.20;;;;;;;;;;5093603;28;20221;-82
2022/04/09 03:20:37;;;;;;;0.20;0.20;;;;;;;;;;5077338;28;20247;-82
2022/04/09 03:23:04;;;;;;;0.20;0.20;;;;;;;;;;5094465;28;20384;-81
2022/04/09 03:25:31;;;;;;;0.20;0.20;;;;;;;;;;5076575;28;20618;-82
2022/04/09 03:27:57;;;;;;;0.20;0.20;;;;;;;;;;5095474;28;20203;-81
2022/04/09 03:30:24;;;;;;;0.20;0.20;;;;;;;;;;5075364;28;20261;-82
2022/04/09 03:32:50;;;;;;;0.20;0.20;;;;;;;;;;5096119;28;20197;-82
2022/04/09 03:35:17;;;;;;;0.20;0.20;;;;;;;;;;5074560;28;20478;-83
2022/04/09 03:37:45;;;;;;;0.20;0.20;;;;;;;;;;5096748;28;20408;-80
2022/04/09 03:40:14;;;;;;;0.20;0.20;;;;;;;;;;5073680;28;20281;-81
2022/04/09 03:42:41;;;;;;;0.20;0.20;;;;;;;;;;5097516;28;20197;-82
2022/04/09 03:45:07;;;;;;;0.20;0.20;;;;;;;;;;5073248;28;20351;-79
2022/04/09 03:47:34;;;;;;;0.20;0.20;;;;;;;;;;5097965;28;20203;-81
2022/04/09 03:50:00;;;;;;;0.20;0.20;;;;;;;;;;5083180;28;20207;-81
2022/04/09 03:52:27;;;;;;;0.20;0.20;;;;;;;;;;5088222;28;20319;-80
2022/04/09 03:54:53;;;;;;;0.20;0.20;;;;;;;;;;5082703;28;20205;-81
2022/04/09 03:57:20;;;;;;;0.20;0.20;;;;;;;;;;5087948;28;20236;-82
2022/04/09 03:59:47;;;;;;;0.20;0.20;;;;;;;;;;5082903;28;20208;-81
2022/04/09 04:02:13;;;;;;;0.20;0.20;;;;;;;;;;5086840;28;20289;-80
2022/04/09 04:04:39;;;;;;;0.20;0.20;;;;;;;;;;5082805;28;20212;-81
2022/04/09 04:07:05;;;;;;;0.30;0.30;;;;;;;;;;5086823;28;20252;-82
2022/04/09 04:09:32;;;;;;;0.20;0.20;;;;;;;;;;5082959;28;20280;-81
2022/04/09 04:11:58;;;;;;;0.20;0.20;;;;;;;;;;5087202;28;20280;-83
2022/04/09 04:14:28;;;;;;;0.20;0.20;;;;;;;;;;5083385;28;20262;-80
2022/04/09 04:16:54;;;;;;;0.20;0.20;;;;;;;;;;5086572;28;20235;-81
2022/04/09 04:19:21;;;;;;;0.40;0.40;;;;;;;;;;5083840;28;20491;-81
2022/04/09 04:21:48;;;;;;;0.20;0.20;;;;;;;;;;5085419;28;20311;-81
2022/04/09 04:24:14;;;;;;;0.20;0.20;;;;;;;;;;5085007;28;20382;-82
2022/04/09 04:26:40;;;;;;;0.20;0.20;;;;;;;;;;5084668;28;20250;-81
2022/04/09 04:29:07;;;;;;;0.20;0.20;;;;;;;;;;5085215;28;20207;-81
2022/04/09 04:31:34;;;;;;;0.20;0.20;;;;;;;;;;5083578;28;20298;-82
2022/04/09 04:34:01;;;;;;;0.20;0.20;;;;;;;;;;5086570;28;20203;-81
2022/04/09 04:36:28;;;;;;;0.40;0.40;;;;;;;;;;5082838;28;20340;-82
2022/04/09 04:38:54;;;;;;;0.20;0.20;;;;;;;;;;5086866;28;20223;-81
2022/04/09 04:41:20;;;;;;;0.20;0.20;;;;;;;;;;5081807;28;20239;-80
2022/04/09 04:43:51;;;;;;;0.20;0.20;;;;;;;;;;5087943;28;20208;-83
2022/04/09 04:46:18;;;;;;;0.20;0.20;;;;;;;;;;5081483;28;20574;-81
2022/04/09 04:48:45;;;;;;;0.20;0.20;;;;;;;;;;5088479;28;20225;-81
2022/04/09 04:51:12;;;;;;;0.40;0.40;;;;;;;;;;5080511;28;20246;-81
2022/04/09 04:53:38;;;;;;;0.20;0.20;;;;;;;;;;5089184;28;20483;-82
2022/04/09 04:56:06;;;;;;;0.20;0.20;;;;;;;;;;5079523;28;20302;-82
2022/04/09 04:58:32;;;;;;;5.23;5.00;;;;;;;;;;5089682;28;20473;-83
2022/04/09 05:00:58;;;;;;;0.20;0.20;;;;;;;;;;5078839;28;20238;-82
2022/04/09 05:03:26;;;;;;;0.20;0.20;;;;;;;;;;5093602;28;20207;-82
2022/04/09 05:05:54;;;;;;;0.20;0.20;;;;;;;;;;5081369;28;20430;-81
2022/04/09 05:08:20;;;;;;;0.20;0.20;;;;;;;;;;5094909;28;20201;-83
2022/04/09 05:10:46;;;;;;;0.20;0.20;;;;;;;;;;5080868;28;20245;-82
2022/04/09 05:13:13;;;;;;;0.20;0.20;;;;;;;;;;5095845;28;20332;-81
2022/04/09 05:15:39;;;;;;;0.20;0.20;;;;;;;;;;5079663;28;20495;-80
2022/04/09 05:18:05;;;;;;;0.20;0.20;;;;;;;;;;5096810;28;20215;-82
2022/04/09 05:20:32;;;;;;;0.20;0.20;;;;;;;;;;5078271;28;20246;-80
2022/04/09 05:23:01;;;;;;;0.20;0.20;;;;;;;;;;5097293;28;20203;-81
2022/04/09 05:25:31;;;;;;;0.20;0.20;;;;;;;;;;5077436;28;20251;-82
2022/04/09 05:27:57;;;;;;;0.20;0.20;;;;;;;;;;5097623;28;20188;-81
2022/04/09 05:30:24;;;;;;;0.20;0.20;;;;;;;;;;5077398;28;20207;-81
2022/04/09 05:32:50;;;;;;;0.20;0.20;;;;;;;;;;5098056;28;20210;-81
2022/04/09 05:35:18;;;;;;;0.20;0.20;;;;;;;;;;5076172;28;20196;-82
2022/04/09 05:37:45;;;;;;;0.20;0.20;;;;;;;;;;5098908;28;20718;-82
2022/04/09 05:40:13;;;;;;;0.20;0.20;;;;;;;;;;5075578;28;20241;-80
2022/04/09 05:42:39;;;;;;;0.20;0.20;;;;;;;;;;5099912;28;20214;-81
2022/04/09 05:45:06;;;;;;;0.20;0.20;;;;;;;;;;5077961;28;20504;-82
2022/04/09 05:47:32;;;;;;;0.20;0.20;;;;;;;;;;5100185;28;20253;-82
2022/04/09 05:49:59;;;;;;;0.20;0.20;;;;;;;;;;5084998;28;20225;-81
2022/04/09 05:52:25;;;;;;;0.20;0.20;;;;;;;;;;5090078;28;20251;-81
2022/04/09 05:54:51;;;;;;;0.20;0.20;;;;;;;;;;5084539;28;20203;-81
2022/04/09 05:57:21;;;;;;;0.20;0.20;;;;;;;;;;5089558;28;20250;-80
2022/04/09 05:59:47;;;;;;;0.20;0.20;;;;;;;;;;5083465;28;20560;-81
2022/04/09 06:02:14;;;;;;;0.20;0.20;;;;;;;;;;5090371;28;20273;-81
2022/04/09 06:04:40;;;;;;;0.20;0.20;;;;;;;;;;5084403;28;20258;-81
2022/04/09 06:07:06;;;;;;;0.20;0.20;;;;;;;;;;5090271;28;20308;-82
2022/04/09 06:09:33;;;;;;;0.20;0.20;;;;;;;;;;5084366;28;20200;-82
2022/04/09 06:11:59;;;;;;;0.20;0.20;;;;;;;;;;5088803;28;20252;-80
2022/04/09 06:14:26;;;;;;;0.20;0.20;;;;;;;;;;5084177;28;20421;-81
2022/04/09 06:16:53;;;;;;;0.20;0.20;;;;;;;;;;5088578;28;20247;-80
2022/04/09 06:19:19;;;;;;;0.20;0.20;;;;;;;;;;5085720;28;20224;-82
2022/04/09 06:21:45;;;;;;;0.20;0.20;;;;;;;;;;5086972;28;20255;-81
2022/04/09 06:24:12;;;;;;;0.10;0.10;;;;;;;;;;5086929;28;20209;-81
2022/04/09 06:26:38;;;;;;;0.20;0.20;;;;;;;;;;5085423;28;20249;-82
2022/04/09 06:29:05;;;;;;;0.20;0.20;;;;;;;;;;5088052;28;20208;-81
2022/04/09 06:31:33;;;;;;;0.20;0.20;;;;;;;;;;5084899;28;20610;-82
2022/04/09 06:33:59;;;;;;;0.20;0.20;;;;;;;;;;5088130;28;20268;-82
2022/04/09 06:36:25;;;;;;;0.10;0.10;;;;;;;;;;5083741;28;20326;-80
2022/04/09 06:38:53;;;;;;;0.20;0.20;;;;;;;;;;5088886;28;20224;-81
2022/04/09 06:41:19;;;;;;;0.20;0.20;;;;;;;;;;5082917;28;20238;-82
2022/04/09 06:43:46;;;;;;;0.20;0.20;;;;;;;;;;5089666;28;20510;-82
2022/04/09 06:46:13;;;;;;;0.20;0.20;;;;;;;;;;5082271;28;20258;-82
2022/04/09 06:48:41;;;;;;;0.10;0.10;;;;;;;;;;5090319;28;20379;-82
2022/04/09 06:51:07;;;;;;;4.30;1.33;;;;;;;;;;5081478;28;20438;-81
2022/04/09 06:53:33;;;;;;;0.10;0.10;;;;;;;;;;5091484;28;20206;-81
2022/04/09 06:56:00;;;;;;;0.20;0.20;;;;;;;;;;5075029;28;20244;-81
2022/04/09 06:58:26;;;;;;;0.20;0.20;;;;;;;;;;5092116;28;20276;-81
2022/04/09 07:00:52;;;;;;;0.10;0.10;;;;;;;;;;5079112;28;20556;-81
2022/04/09 07:03:18;;;;;;;0.10;0.10;;;;;;;;;;5092929;28;20203;-80
2022/04/09 07:05:46;;;;;;;0.10;0.10;;;;;;;;;;5078473;28;20250;-81
2022/04/09 07:08:12;;;;;;;0.10;0.10;;;;;;;;;;5093705;28;20225;-82
2022/04/09 07:10:39;;;;;;;0.10;0.10;;;;;;;;;;5077190;28;20242;-83
2022/04/09 07:13:06;;;;;;;0.10;0.10;;;;;;;;;;5094266;28;20200;-83
2022/04/09 07:15:32;;;;;;;0.10;0.10;;;;;;;;;;5076217;28;20457;-81
2022/04/09 07:17:59;;;;;;;0.10;0.10;;;;;;;;;;5095372;28;20223;-81
2022/04/09 07:20:25;;;;;;;0.10;0.10;;;;;;;;;;5075354;28;20245;-80
2022/04/09 07:22:53;;;;;;;0.10;0.10;;;;;;;;;;5096070;28;20223;-82
2022/04/09 07:25:19;;;;;;;0.10;0.10;;;;;;;;;;5074078;28;20247;-83
2022/04/09 07:27:46;;;;;;;0.10;0.10;;;;;;;;;;5096587;28;20210;-83
2022/04/09 07:30:14;;;;;;;0.10;0.10;;;;;;;;;;5073730;28;20397;-81
2022/04/09 07:32:40;;;;;;;0.20;0.20;;;;;;;;;;5097692;28;20238;-81
2022/04/09 07:35:08;;;;;;;0.10;0.10;;;;;;;;;;5072972;28;20200;-81
2022/04/09 07:37:39;;;;;;;0.10;0.10;;;;;;;;;;5098030;28;20664;-81
2022/04/09 07:40:08;;;;;;;0.10;0.10;;;;;;;;;;5076705;28;20254;-80
2022/04/09 07:42:34;;;;;;;0.10;0.10;;;;;;;;;;5098412;28;20220;-82
2022/04/09 07:45:01;;;;;;;0.10;0.10;;;;;;;;;;5082758;28;20210;-81
2022/04/09 07:47:27;;;;;;;0.10;0.10;;;;;;;;;;5088158;28;20242;-81
2022/04/09 07:49:54;;;;;;;0.10;0.10;;;;;;;;;;5083584;28;20205;-81
2022/04/09 07:52:21;;;;;;;0.20;0.20;;;;;;;;;;5089685;28;20241;-82
2022/04/09 07:54:48;;;;;;;0.10;0.10;;;;;;;;;;5084727;28;20210;-82
2022/04/09 07:57:16;;;;;;;0.10;0.10;;;;;;;;;;5089514;28;20394;-81
2022/04/09 07:59:42;;;;;;;0.10;0.10;;;;;;;;;;5084024;28;20398;-81
2022/04/09 08:02:09;;;;;;;0.20;0.20;;;;;;;;;;5089061;28;20451;-80
2022/04/09 08:04:35;;;;;;;0.10;0.10;;;;;;;;;;5083718;28;20212;-82
2022/04/09 08:07:01;;;;;;;0.10;0.10;;;;;;;;;;5087499;28;20246;-82
2022/04/09 08:09:28;;;;;;;0.10;0.10;;;;;;;;;;5084428;28;20201;-79
2022/04/09 08:11:55;;;;;;;0.10;0.10;;;;;;;;;;5087458;28;20252;-79
2022/04/09 08:14:24;;;;;;;0.10;0.10;;;;;;;;;;5082262;28;20278;-80
2022/04/09 08:16:53;;;;;;;0.10;0.10;;;;;;;;;;5086694;28;20249;-80
2022/04/09 08:19:21;;;;;;;0.10;0.10;;;;;;;;;;5084048;28;20222;-80
2022/04/09 08:21:47;;;;;;;0.10;0.10;;;;;;;;;;5086010;28;20309;-83
2022/04/09 08:24:13;;;;;;;0.10;0.10;;;;;;;;;;5084806;28;20202;-83
2022/04/09 08:26:39;;;;;;;0.20;0.20;;;;;;;;;;5084259;28;20241;-81
2022/04/09 08:29:06;;;;;;;0.13;0.13;;;;;;;;;;5085787;28;20199;-82
2022/04/09 08:31:35;;;;;;;0.20;0.20;;;;;;;;;;5083582;28;20242;-80
2022/04/09 08:34:01;;;;;;;0.20;0.20;;;;;;;;;;5086661;28;20249;-82
2022/04/09 08:36:28;;;;;;;0.10;0.10;;;;;;;;;;5082960;28;20238;-81
2022/04/09 08:38:58;;;;;;;0.10;0.10;;;;;;;;;;5091096;28;20227;-77
2022/04/09 08:41:28;;;;;;;0.10;0.10;;;;;;;;;;5083486;28;20316;-81
2022/04/09 08:43:59;;;;;;;0.10;0.10;;;;;;;;;;5094032;28;20195;-82
2022/04/09 08:46:27;;;;;;;0.10;0.10;;;;;;;;;;5086443;28;20266;-83
2022/04/09 08:48:58;;;;;;;0.10;0.10;;;;;;;;;;5091121;28;20201;-82
2022/04/09 08:51:27;;;;;;;0.10;0.10;;;;;;;;;;5085919;28;20239;-82
2022/04/09 08:53:58;;;;;;;0.10;0.10;;;;;;;;;;5091140;28;20455;-80
2022/04/09 08:56:24;;;;;;;0.10;0.10;;;;;;;;;;5086388;28;20533;-81
2022/04/09 08:58:53;;;;;;;0.10;0.10;;;;;;;;;;5091031;28;20235;-80
2022/04/09 09:01:21;;;;;;;0.10;0.10;;;;;;;;;;5085701;28;20474;-83
2022/04/09 09:03:47;;;;;;;0.10;0.10;;;;;;;;;;5091845;28;20250;-84
2022/04/09 09:06:27;;;;;;;0.20;0.20;;;;;;;;;;5084648;28;20347;-84
2022/04/09 09:08:54;;;;;;;0.10;0.10;;;;;;;;;;5091649;28;20197;-85
2022/04/09 09:11:21;;;;;;;0.10;0.10;;;;;;;;;;5084946;28;20249;-82
2022/04/09 09:13:48;;;;;;;0.10;0.10;;;;;;;;;;5091856;28;20381;-83
2022/04/09 09:16:21;;;;;;;0.10;0.10;;;;;;;;;;5084582;28;20499;-81
2022/04/09 09:18:51;;;;;;;0.10;0.10;;;;;;;;;;5091521;28;20215;-82
2022/04/09 09:21:23;;;;;;;0.10;0.10;;;;;;;;;;5085132;28;20243;-82
2022/04/09 09:23:51;;;;;;;0.10;0.10;;;;;;;;;;5091050;28;20273;-84
2022/04/09 09:26:20;;;;;;;0.10;0.10;;;;;;;;;;5084444;28;20236;-82
2022/04/09 09:28:54;;;;;;;0.10;0.10;;;;;;;;;;5091504;28;20237;-83
2022/04/09 09:31:21;;;;;;;0.10;0.10;;;;;;;;;;5076827;28;20547;-84
2022/04/09 09:33:48;;;;;;;0.10;0.10;;;;;;;;;;5091575;28;20201;-83
2022/04/09 09:36:14;;;;;;;0.00;0.00;;;;;;;;;;5083846;28;20516;-82
2022/04/09 09:38:41;;;;;;;0.10;0.10;;;;;;;;;;5091728;28;20226;-83
2022/04/09 09:41:22;;;;;;;0.10;0.10;;;;;;;;;;5082924;28;20457;-81
2022/04/09 09:44:00;;;;;;;0.10;0.10;;;;;;;;;;5091212;28;20313;-82
2022/04/09 09:46:27;;;;;;;0.10;0.10;;;;;;;;;;5085007;28;20254;-81
2022/04/09 09:48:53;;;;;;;0.10;0.10;;;;;;;;;;5089550;28;20201;-82
2022/04/09 09:51:22;;;;;;;0.03;0.03;;;;;;;;;;5084084;28;20289;-83
2022/04/09 09:54:03;;;;;;;0.10;0.10;;;;;;;;;;5090781;28;20219;-81
2022/04/09 09:56:35;;;;;;;0.10;0.10;;;;;;;;;;5085645;28;20288;-84
2022/04/09 09:59:02;;;;;;;0.10;0.10;;;;;;;;;;5088822;28;20571;-84
2022/04/09 10:01:28;;;;;;;0.10;0.10;;;;;;;;;;5085408;28;20551;-82
2022/04/09 10:03:55;;;;;;;0.10;0.10;;;;;;;;;;5089755;28;20203;-84
2022/04/09 10:06:21;;;;;;;0.60;0.60;;;;;;;;;;5084176;28;20291;-84
2022/04/09 10:08:48;;;;;;;0.10;0.10;;;;;;;;;;5090244;28;20202;-82
2022/04/09 10:11:18;;;;;;;0.10;0.10;;;;;;;;;;5083539;28;20454;-82
2022/04/09 10:13:52;;;;;;;0.10;0.10;;;;;;;;;;5091042;28;20234;-80
2022/04/09 10:16:27;;;;;;;0.10;0.10;;;;;;;;;;5083838;28;20260;-80
2022/04/09 10:18:57;;;;;;;0.10;0.10;;;;;;;;;;5089423;28;20222;-80
2022/04/09 10:21:26;;;;;;;0.10;0.10;;;;;;;;;;5083755;28;20442;-80
2022/04/09 10:23:52;;;;;;;0.10;0.10;;;;;;;;;;5089877;28;20276;-80
2022/04/09 10:26:18;;;;;;;0.10;0.10;;;;;;;;;;5083314;28;20254;-81
2022/04/09 10:28:50;;;;;;;0.10;0.10;;;;;;;;;;5090358;28;20212;-81
2022/04/09 10:31:35;;;;;;;0.10;0.10;;;;;;;;;;5082897;28;20240;-82
2022/04/09 10:34:02;;;;;;;0.10;0.10;;;;;;;;;;5088445;28;20210;-81
2022/04/09 10:36:48;;;;;;;0.10;0.10;;;;;;;;;;5084497;28;20250;-81
2022/04/09 10:39:21;;;;;;;0.10;0.10;;;;;;;;;;5086352;28;20231;-79
2022/04/09 10:41:47;;;;;;;0.10;0.10;;;;;;;;;;5086936;28;20291;-82
2022/04/09 10:44:33;;;;;;;0.10;0.10;;;;;;;;;;5086435;28;20203;-80
2022/04/09 10:47:01;;;;;;;0.10;0.10;;;;;;;;;;5088141;28;20245;-80
2022/04/09 10:49:28;;;;;;;0.10;0.10;;;;;;;;;;5084626;28;20208;-79
2022/04/09 10:51:58;;;;;;;0.10;0.10;;;;;;;;;;5087443;28;20241;-80
2022/04/09 10:54:24;;;;;;;0.10;0.10;;;;;;;;;;5084438;28;20211;-79
2022/04/09 10:56:51;;;;;;;0.10;0.10;;;;;;;;;;5086558;28;20290;-80
2022/04/09 10:59:34;;;;;;;0.10;0.10;;;;;;;;;;5084458;28;20267;-81
2022/04/09 11:02:02;;;;;;;0.10;0.10;;;;;;;;;;5086853;28;20253;-82
2022/04/09 11:04:44;;;;;;;0.10;0.10;;;;;;;;;;5083765;28;20252;-79
2022/04/09 11:07:12;;;;;;;0.10;0.10;;;;;;;;;;5088811;28;20261;-79
2022/04/09 11:09:57;;;;;;;6.67;6.33;;;;;;;;;;5083423;28;20207;-81
2022/04/09 11:12:24;;;;;;;0.10;0.10;;;;;;;;;;5088567;28;20327;-81
2022/04/09 11:14:55;;;;;;;0.13;0.13;;;;;;;;;;5082780;28;20555;-80
2022/04/09 11:17:26;;;;;;;0.10;0.10;;;;;;;;;;5088463;28;20305;-80
2022/04/09 11:19:53;;;;;;;0.10;0.10;;;;;;;;;;5082484;28;20229;-80
2022/04/09 11:22:19;;;;;;;0.10;0.10;;;;;;;;;;5088300;28;20260;-80
2022/04/09 11:24:46;;;;;;;0.10;0.10;;;;;;;;;;5082308;28;20267;-79
2022/04/09 11:27:12;;;;;;;0.10;0.10;;;;;;;;;;5088053;28;20244;-81
2022/04/09 11:29:40;;;;;;;0.10;0.10;;;;;;;;;;5083272;28;20207;-80
2022/04/09 11:32:17;;;;;;;0.10;0.10;;;;;;;;;;5088042;28;20234;-81
2022/04/09 11:34:47;;;;;;;0.10;0.10;;;;;;;;;;5083100;28;20203;-80
2022/04/09 11:37:13;;;;;;;0.10;0.10;;;;;;;;;;5087837;28;20275;-80
2022/04/09 11:39:39;;;;;;;0.10;0.10;;;;;;;;;;5083052;28;20230;-79
2022/04/09 11:42:06;;;;;;;0.10;0.10;;;;;;;;;;5087725;28;20246;-81
2022/04/09 11:44:33;;;;;;;0.17;0.17;;;;;;;;;;5083181;28;20430;-81
2022/04/09 11:47:08;;;;;;;0.10;0.10;;;;;;;;;;5087087;28;20247;-79
2022/04/09 11:49:35;;;;;;;1.40;1.07;;;;;;;;;;5082422;28;20535;-79
2022/04/09 11:52:01;;;;;;;0.10;0.10;;;;;;;;;;5087558;28;20290;-81
2022/04/09 11:54:31;;;;;;;0.10;0.10;;;;;;;;;;5083358;28;20254;-80
2022/04/09 11:56:57;;;;;;;0.20;0.20;;;;;;;;;;5086688;28;20264;-80
2022/04/09 11:59:25;;;;;;;0.10;0.10;;;;;;;;;;5084082;28;20889;-81
2022/04/09 12:01:53;;;;;;;0.10;0.10;;;;;;;;;;5085942;28;20248;-80
2022/04/09 12:04:22;;;;;;;0.10;0.10;;;;;;;;;;5084920;28;20263;-83
2022/04/09 12:06:48;;;;;;;0.10;0.10;;;;;;;;;;5085831;28;20239;-81
2022/04/09 12:09:18;;;;;;;0.10;0.10;;;;;;;;;;5085394;28;20204;-80
2022/04/09 12:11:51;;;;;;;0.00;0.00;;;;;;;;;;5087304;28;20244;-79
2022/04/09 12:17:31;;;;;;;0.10;0.10;;;;;;;;;;5066726;28;20217;-79
2022/04/09 12:19:59;;;;;;;0.00;0.00;;;;;;;;;;5083670;28;20265;-82
2022/04/09 12:22:36;;;;;;;0.10;0.10;;;;;;;;;;5092388;28;20268;-79
2022/04/09 12:25:03;;;;;;;0.10;0.10;;;;;;;;;;5086521;28;20261;-80
2022/04/09 12:27:43;;;;;;;0.10;0.10;;;;;;;;;;5091452;28;20243;-81
2022/04/09 12:30:10;;;;;;;0.10;0.10;;;;;;;;;;5076310;28;20199;-79
2022/04/09 12:32:36;;;;;;;0.10;0.10;;;;;;;;;;5084468;28;20206;-80
2022/04/09 12:35:07;;;;;;;0.10;0.10;;;;;;;;;;5085753;28;20219;-80
2022/04/09 12:37:42;;;;;;;0.10;0.10;;;;;;;;;;5073839;28;20235;-79
2022/04/09 12:40:13;;;;;;;0.10;0.10;;;;;;;;;;5074563;28;20298;-79
2022/04/09 12:42:39;;;;;;;0.00;0.00;;;;;;;;;;5100572;28;20237;-80
2022/04/09 12:45:12;;;;;;;0.10;0.10;;;;;;;;;;5085604;28;20411;-81
2022/04/09 12:47:38;;;;;;;0.10;0.10;;;;;;;;;;5091453;28;20307;-79
2022/04/09 12:50:07;;;;;;;0.10;0.10;;;;;;;;;;5086022;28;20208;-81
2022/04/09 12:52:35;;;;;;;0.10;0.10;;;;;;;;;;5074622;28;20208;-81
2022/04/09 12:55:01;;;;;;;0.10;0.10;;;;;;;;;;5085737;28;20259;-80
2022/04/09 12:57:29;;;;;;;3.30;3.10;;;;;;;;;;5091401;28;20249;-80
2022/04/09 12:59:56;;;;;;;0.10;0.10;;;;;;;;;;5086043;28;20224;-79
2022/04/09 13:02:22;;;;;;;0.10;0.10;;;;;;;;;;5090898;28;20243;-79
2022/04/09 13:04:49;;;;;;;0.10;0.10;;;;;;;;;;5085612;28;20218;-80
2022/04/09 13:07:18;;;;;;;0.10;0.10;;;;;;;;;;5091006;28;20308;-80
2022/04/09 13:09:44;;;;;;;0.10;0.10;;;;;;;;;;5085699;28;20210;-81
2022/04/09 13:12:11;;;;;;;0.10;0.10;;;;;;;;;;5091060;28;20246;-80
2022/04/09 13:14:38;;;;;;;0.10;0.10;;;;;;;;;;5085898;28;20204;-80
2022/04/09 13:17:07;;;;;;;0.10;0.10;;;;;;;;;;5090728;28;20483;-80
2022/04/09 13:19:35;;;;;;;0.17;0.17;;;;;;;;;;5085353;28;20204;-80
2022/04/09 13:22:01;;;;;;;0.10;0.10;;;;;;;;;;5089550;28;20316;-79
2022/04/09 13:24:29;;;;;;;0.10;0.10;;;;;;;;;;5085707;28;20480;-80
2022/04/09 13:26:55;;;;;;;0.10;0.10;;;;;;;;;;5088873;28;20275;-81
2022/04/09 13:29:22;;;;;;;0.10;0.10;;;;;;;;;;5086849;28;20256;-80
2022/04/09 13:31:48;;;;;;;0.10;0.10;;;;;;;;;;5087972;28;20310;-73
2022/04/09 13:34:17;;;;;;;0.10;0.10;;;;;;;;;;5087307;28;20203;-73
2022/04/09 13:36:43;;;;;;;0.10;0.10;;;;;;;;;;5086994;28;20377;-73
2022/04/09 13:39:11;;;;;;;0.10;0.10;;;;;;;;;;5088083;28;20429;-75
2022/04/09 13:41:39;;;;;;;0.10;0.10;;;;;;;;;;5086574;28;20290;-75
2022/04/09 13:44:05;;;;;;;0.10;0.10;;;;;;;;;;5088418;28;20203;-75
2022/04/09 13:46:32;;;;;;;0.10;0.10;;;;;;;;;;5085907;28;20474;-74
2022/04/09 13:48:58;;;;;;;0.10;0.10;;;;;;;;;;5089069;28;20205;-72
2022/04/09 13:51:24;;;;;;;0.10;0.10;;;;;;;;;;5084870;28;20468;-74
2022/04/09 13:53:51;;;;;;;0.10;0.10;;;;;;;;;;5090443;28;20394;-75
2022/04/09 13:56:17;;;;;;;0.10;0.10;;;;;;;;;;5083878;28;20245;-73
2022/04/09 13:58:45;;;;;;;0.10;0.10;;;;;;;;;;5090799;28;20255;-75
2022/04/09 14:01:11;;;;;;;0.10;0.10;;;;;;;;;;5082665;28;20293;-80
2022/04/09 14:03:38;;;;;;;0.23;0.23;;;;;;;;;;5092079;28;20200;-81
2022/04/09 14:06:04;;;;;;;0.10;0.10;;;;;;;;;;5081984;28;20305;-80
2022/04/09 14:08:31;;;;;;;0.10;0.10;;;;;;;;;;5092729;28;20212;-80
2022/04/09 14:10:58;;;;;;;0.10;0.10;;;;;;;;;;5080785;28;20595;-81
2022/04/09 14:13:24;;;;;;;0.10;0.10;;;;;;;;;;5093176;28;20205;-81
2022/04/09 14:15:52;;;;;;;0.10;0.10;;;;;;;;;;5079953;28;20240;-80
2022/04/09 14:18:18;;;;;;;0.10;0.10;;;;;;;;;;5093878;28;20206;-79
2022/04/09 14:20:47;;;;;;;1.03;0.93;;;;;;;;;;5079236;28;20309;-80
2022/04/09 14:23:14;;;;;;;0.10;0.10;;;;;;;;;;5094488;28;20247;-80
2022/04/09 14:25:40;;;;;;;0.10;0.10;;;;;;;;;;5078199;28;20243;-79
2022/04/09 14:28:08;;;;;;;0.10;0.10;;;;;;;;;;5095177;28;20206;-79
2022/04/09 14:30:35;;;;;;;0.20;0.20;;;;;;;;;;5077555;28;20246;-80
2022/04/09 14:33:02;;;;;;;0.10;0.10;;;;;;;;;;5095930;28;20212;-79
2022/04/09 14:35:29;;;;;;;0.10;0.10;;;;;;;;;;5077130;28;20246;-79
2022/04/09 14:37:55;;;;;;;0.10;0.10;;;;;;;;;;5096111;28;20229;-80
2022/04/09 14:40:22;;;;;;;0.10;0.10;;;;;;;;;;5075351;28;20288;-81
2022/04/09 14:42:48;;;;;;;0.10;0.10;;;;;;;;;;5097066;28;20264;-78
2022/04/09 14:45:15;;;;;;;0.10;0.10;;;;;;;;;;5074685;28;20205;-79
2022/04/09 14:47:41;;;;;;;0.10;0.10;;;;;;;;;;5098132;28;20205;-80
2022/04/09 14:50:11;;;;;;;0.10;0.10;;;;;;;;;;5083672;28;20200;-80